sensor_id;sensor_type;location;lat;lon;timestamp;P1;durP1;ratioP1;P2;durP2;ratioP2
32365;SDS011;18837;46.832;16.838;2022-11-22T00:00:17;10.37;;;8.27;;
32365;SDS011;18837;46.832;16.838;2022-11-22T00:05:31;11.50;;;8.67;;
32365;SDS011;18837;46.832;16.838;2022-11-22T00:07:58;12.43;;;8.87;;
32365;SDS011;18837;46.832;16.838;2022-11-22T00:10:23;13.13;;;9.67;;
32365;SDS011;18837;46.832;16.838;2022-11-22T00:12:49;11.97;;;9.20;;
32365;SDS011;18837;46.832;16.838;2022-11-22T00:15:15;10.63;;;8.27;;
32365;SDS011;18837;46.832;16.838;2022-11-22T00:17:41;11.83;;;8.90;;
32365;SDS011;18837;46.832;16.838;2022-11-22T00:26:00;10.83;;;8.17;;
32365;SDS011;18837;46.832;16.838;2022-11-22T00:28:26;10.97;;;8.00;;
32365;SDS011;18837;46.832;16.838;2022-11-22T00:30:52;10.40;;;8.10;;
32365;SDS011;18837;46.832;16.838;2022-11-22T00:33:17;12.30;;;8.73;;
32365;SDS011;18837;46.832;16.838;2022-11-22T00:35:44;10.80;;;8.33;;
32365;SDS011;18837;46.832;16.838;2022-11-22T00:40:54;13.30;;;9.40;;
32365;SDS011;18837;46.832;16.838;2022-11-22T00:43:23;10.63;;;8.10;;
32365;SDS011;18837;46.832;16.838;2022-11-22T00:45:49;10.63;;;8.07;;
32365;SDS011;18837;46.832;16.838;2022-11-22T00:48:15;13.23;;;9.23;;
32365;SDS011;18837;46.832;16.838;2022-11-22T00:50:41;11.73;;;8.57;;
32365;SDS011;18837;46.832;16.838;2022-11-22T00:59:12;10.70;;;8.37;;
32365;SDS011;18837;46.832;16.838;2022-11-22T01:01:38;11.83;;;8.27;;
32365;SDS011;18837;46.832;16.838;2022-11-22T01:04:03;11.80;;;9.23;;
32365;SDS011;18837;46.832;16.838;2022-11-22T01:06:29;11.90;;;9.13;;
32365;SDS011;18837;46.832;16.838;2022-11-22T01:08:55;11.10;;;8.40;;
32365;SDS011;18837;46.832;16.838;2022-11-22T01:11:21;12.17;;;9.27;;
32365;SDS011;18837;46.832;16.838;2022-11-22T01:13:53;12.30;;;8.73;;
32365;SDS011;18837;46.832;16.838;2022-11-22T01:16:18;12.53;;;8.60;;
32365;SDS011;18837;46.832;16.838;2022-11-22T01:18:44;12.07;;;9.33;;
32365;SDS011;18837;46.832;16.838;2022-11-22T01:21:10;12.27;;;9.57;;
32365;SDS011;18837;46.832;16.838;2022-11-22T01:23:36;12.70;;;9.40;;
32365;SDS011;18837;46.832;16.838;2022-11-22T01:26:02;11.83;;;8.33;;
32365;SDS011;18837;46.832;16.838;2022-11-22T01:34:28;11.60;;;8.67;;
32365;SDS011;18837;46.832;16.838;2022-11-22T01:36:53;12.77;;;9.37;;
32365;SDS011;18837;46.832;16.838;2022-11-22T01:39:19;12.47;;;8.73;;
32365;SDS011;18837;46.832;16.838;2022-11-22T01:41:45;10.17;;;8.13;;
32365;SDS011;18837;46.832;16.838;2022-11-22T01:44:22;12.40;;;8.90;;
32365;SDS011;18837;46.832;16.838;2022-11-22T01:49:42;11.23;;;8.67;;
32365;SDS011;18837;46.832;16.838;2022-11-22T01:52:15;13.73;;;8.83;;
32365;SDS011;18837;46.832;16.838;2022-11-22T01:54:44;12.23;;;8.77;;
32365;SDS011;18837;46.832;16.838;2022-11-22T01:57:18;13.63;;;9.40;;
32365;SDS011;18837;46.832;16.838;2022-11-22T02:10:09;12.70;;;8.80;;
32365;SDS011;18837;46.832;16.838;2022-11-22T02:12:36;11.37;;;8.97;;
32365;SDS011;18837;46.832;16.838;2022-11-22T02:15:02;12.63;;;9.67;;
32365;SDS011;18837;46.832;16.838;2022-11-22T02:17:28;13.07;;;9.10;;
32365;SDS011;18837;46.832;16.838;2022-11-22T02:19:54;13.83;;;9.33;;
32365;SDS011;18837;46.832;16.838;2022-11-22T02:28:02;12.93;;;8.97;;
32365;SDS011;18837;46.832;16.838;2022-11-22T02:30:28;12.30;;;9.10;;
32365;SDS011;18837;46.832;16.838;2022-11-22T02:32:54;13.07;;;9.47;;
32365;SDS011;18837;46.832;16.838;2022-11-22T02:35:21;11.77;;;8.40;;
32365;SDS011;18837;46.832;16.838;2022-11-22T02:44:27;11.20;;;8.40;;
32365;SDS011;18837;46.832;16.838;2022-11-22T02:46:54;11.10;;;8.67;;
32365;SDS011;18837;46.832;16.838;2022-11-22T02:49:20;11.33;;;8.50;;
32365;SDS011;18837;46.832;16.838;2022-11-22T02:51:48;11.77;;;8.90;;
32365;SDS011;18837;46.832;16.838;2022-11-22T02:54:15;13.27;;;9.40;;
32365;SDS011;18837;46.832;16.838;2022-11-22T02:56:57;11.50;;;8.63;;
32365;SDS011;18837;46.832;16.838;2022-11-22T02:59:22;11.23;;;8.40;;
32365;SDS011;18837;46.832;16.838;2022-11-22T03:01:48;14.00;;;9.27;;
32365;SDS011;18837;46.832;16.838;2022-11-22T03:04:14;11.50;;;8.63;;
32365;SDS011;18837;46.832;16.838;2022-11-22T03:06:57;11.87;;;8.47;;
32365;SDS011;18837;46.832;16.838;2022-11-22T03:09:24;11.97;;;8.83;;
32365;SDS011;18837;46.832;16.838;2022-11-22T03:17:44;11.27;;;8.53;;
32365;SDS011;18837;46.832;16.838;2022-11-22T03:20:10;12.17;;;8.73;;
32365;SDS011;18837;46.832;16.838;2022-11-22T03:22:36;11.40;;;8.40;;
32365;SDS011;18837;46.832;16.838;2022-11-22T03:25:02;11.83;;;8.80;;
32365;SDS011;18837;46.832;16.838;2022-11-22T03:27:28;13.67;;;9.13;;
32365;SDS011;18837;46.832;16.838;2022-11-22T03:29:54;11.70;;;8.60;;
32365;SDS011;18837;46.832;16.838;2022-11-22T03:32:35;10.77;;;7.73;;
32365;SDS011;18837;46.832;16.838;2022-11-22T03:35:01;10.77;;;7.93;;
32365;SDS011;18837;46.832;16.838;2022-11-22T03:37:27;11.87;;;8.57;;
32365;SDS011;18837;46.832;16.838;2022-11-22T03:39:53;11.73;;;8.43;;
32365;SDS011;18837;46.832;16.838;2022-11-22T03:42:19;10.50;;;8.20;;
32365;SDS011;18837;46.832;16.838;2022-11-22T03:44:44;12.10;;;8.03;;
32365;SDS011;18837;46.832;16.838;2022-11-22T03:52:42;12.47;;;8.53;;
32365;SDS011;18837;46.832;16.838;2022-11-22T03:55:07;11.83;;;8.67;;
32365;SDS011;18837;46.832;16.838;2022-11-22T03:57:33;10.97;;;8.53;;
32365;SDS011;18837;46.832;16.838;2022-11-22T03:59:59;11.43;;;7.97;;
32365;SDS011;18837;46.832;16.838;2022-11-22T04:02:24;12.87;;;9.47;;
32365;SDS011;18837;46.832;16.838;2022-11-22T04:07:35;11.50;;;8.00;;
32365;SDS011;18837;46.832;16.838;2022-11-22T04:10:00;13.50;;;8.33;;
32365;SDS011;18837;46.832;16.838;2022-11-22T04:12:28;9.60;;;7.57;;
32365;SDS011;18837;46.832;16.838;2022-11-22T04:14:54;12.17;;;7.97;;
32365;SDS011;18837;46.832;16.838;2022-11-22T04:17:36;11.50;;;7.87;;
32365;SDS011;18837;46.832;16.838;2022-11-22T04:26:34;9.87;;;7.37;;
32365;SDS011;18837;46.832;16.838;2022-11-22T04:29:00;11.60;;;8.13;;
32365;SDS011;18837;46.832;16.838;2022-11-22T04:31:26;9.87;;;7.40;;
32365;SDS011;18837;46.832;16.838;2022-11-22T04:34:10;9.80;;;7.27;;
32365;SDS011;18837;46.832;16.838;2022-11-22T04:39:11;10.37;;;7.30;;
32365;SDS011;18837;46.832;16.838;2022-11-22T04:41:40;9.40;;;7.33;;
32365;SDS011;18837;46.832;16.838;2022-11-22T04:44:07;9.90;;;7.20;;
32365;SDS011;18837;46.832;16.838;2022-11-22T04:46:51;10.10;;;6.90;;
32365;SDS011;18837;46.832;16.838;2022-11-22T04:49:17;9.90;;;7.50;;
32365;SDS011;18837;46.832;16.838;2022-11-22T04:51:43;9.37;;;7.33;;
32365;SDS011;18837;46.832;16.838;2022-11-22T04:54:27;9.70;;;7.13;;
32365;SDS011;18837;46.832;16.838;2022-11-22T05:00:15;10.07;;;7.20;;
32365;SDS011;18837;46.832;16.838;2022-11-22T05:02:41;10.33;;;7.90;;
32365;SDS011;18837;46.832;16.838;2022-11-22T05:05:07;10.57;;;7.80;;
32365;SDS011;18837;46.832;16.838;2022-11-22T05:07:33;11.20;;;7.87;;
32365;SDS011;18837;46.832;16.838;2022-11-22T05:09:59;10.27;;;7.63;;
32365;SDS011;18837;46.832;16.838;2022-11-22T05:12:24;10.47;;;7.83;;
32365;SDS011;18837;46.832;16.838;2022-11-22T05:14:53;8.07;;;6.70;;
32365;SDS011;18837;46.832;16.838;2022-11-22T05:17:22;11.37;;;7.93;;
32365;SDS011;18837;46.832;16.838;2022-11-22T05:19:48;10.90;;;7.57;;
32365;SDS011;18837;46.832;16.838;2022-11-22T05:22:14;10.77;;;8.10;;
32365;SDS011;18837;46.832;16.838;2022-11-22T05:24:39;10.00;;;7.37;;
32365;SDS011;18837;46.832;16.838;2022-11-22T05:27:05;10.60;;;7.50;;
32365;SDS011;18837;46.832;16.838;2022-11-22T05:35:50;10.43;;;7.27;;
32365;SDS011;18837;46.832;16.838;2022-11-22T05:38:16;10.67;;;7.67;;
32365;SDS011;18837;46.832;16.838;2022-11-22T05:40:42;10.10;;;7.80;;
32365;SDS011;18837;46.832;16.838;2022-11-22T05:43:08;10.40;;;7.87;;
32365;SDS011;18837;46.832;16.838;2022-11-22T05:45:33;10.27;;;7.20;;
32365;SDS011;18837;46.832;16.838;2022-11-22T05:47:59;9.67;;;7.17;;
32365;SDS011;18837;46.832;16.838;2022-11-22T05:50:34;10.83;;;8.57;;
32365;SDS011;18837;46.832;16.838;2022-11-22T05:53:00;11.03;;;7.90;;
32365;SDS011;18837;46.832;16.838;2022-11-22T05:55:27;9.33;;;7.40;;
32365;SDS011;18837;46.832;16.838;2022-11-22T05:57:53;9.10;;;7.57;;
32365;SDS011;18837;46.832;16.838;2022-11-22T06:00:19;12.17;;;8.87;;
32365;SDS011;18837;46.832;16.838;2022-11-22T06:02:45;10.03;;;7.93;;
32365;SDS011;18837;46.832;16.838;2022-11-22T06:11:31;11.33;;;8.13;;
32365;SDS011;18837;46.832;16.838;2022-11-22T06:13:58;10.93;;;8.60;;
32365;SDS011;18837;46.832;16.838;2022-11-22T06:16:27;11.50;;;7.97;;
32365;SDS011;18837;46.832;16.838;2022-11-22T06:18:53;13.00;;;8.87;;
32365;SDS011;18837;46.832;16.838;2022-11-22T06:21:20;10.23;;;7.83;;
32365;SDS011;18837;46.832;16.838;2022-11-22T06:24:02;12.30;;;8.60;;
32365;SDS011;18837;46.832;16.838;2022-11-22T06:26:28;11.97;;;8.87;;
32365;SDS011;18837;46.832;16.838;2022-11-22T06:28:54;11.80;;;8.87;;
32365;SDS011;18837;46.832;16.838;2022-11-22T06:31:21;13.07;;;8.87;;
32365;SDS011;18837;46.832;16.838;2022-11-22T06:33:48;12.47;;;9.17;;
32365;SDS011;18837;46.832;16.838;2022-11-22T06:36:24;12.93;;;9.17;;
32365;SDS011;18837;46.832;16.838;2022-11-22T06:44:51;11.97;;;8.37;;
32365;SDS011;18837;46.832;16.838;2022-11-22T06:47:17;10.70;;;8.40;;
32365;SDS011;18837;46.832;16.838;2022-11-22T06:49:43;14.80;;;10.27;;
32365;SDS011;18837;46.832;16.838;2022-11-22T06:52:10;12.17;;;9.07;;
32365;SDS011;18837;46.832;16.838;2022-11-22T06:54:36;12.70;;;9.63;;
32365;SDS011;18837;46.832;16.838;2022-11-22T06:57:01;13.13;;;10.10;;
32365;SDS011;18837;46.832;16.838;2022-11-22T06:59:30;15.43;;;10.20;;
32365;SDS011;18837;46.832;16.838;2022-11-22T07:01:57;16.23;;;11.03;;
32365;SDS011;18837;46.832;16.838;2022-11-22T07:04:23;14.87;;;10.83;;
32365;SDS011;18837;46.832;16.838;2022-11-22T07:06:48;12.50;;;9.63;;
32365;SDS011;18837;46.832;16.838;2022-11-22T07:09:14;14.73;;;10.47;;
32365;SDS011;18837;46.832;16.838;2022-11-22T07:11:40;17.47;;;11.27;;
32365;SDS011;18837;46.832;16.838;2022-11-22T07:20:08;15.43;;;10.63;;
32365;SDS011;18837;46.832;16.838;2022-11-22T07:22:34;15.90;;;11.20;;
32365;SDS011;18837;46.832;16.838;2022-11-22T07:24:59;17.70;;;11.53;;
32365;SDS011;18837;46.832;16.838;2022-11-22T07:27:25;17.70;;;11.83;;
32365;SDS011;18837;46.832;16.838;2022-11-22T07:29:51;17.20;;;12.30;;
32365;SDS011;18837;46.832;16.838;2022-11-22T07:32:35;16.50;;;11.40;;
32365;SDS011;18837;46.832;16.838;2022-11-22T07:35:01;15.23;;;10.90;;
32365;SDS011;18837;46.832;16.838;2022-11-22T07:37:29;16.43;;;10.73;;
32365;SDS011;18837;46.832;16.838;2022-11-22T07:39:55;15.50;;;11.20;;
32365;SDS011;18837;46.832;16.838;2022-11-22T07:42:21;16.27;;;11.60;;
32365;SDS011;18837;46.832;16.838;2022-11-22T07:44:46;16.23;;;11.27;;
32365;SDS011;18837;46.832;16.838;2022-11-22T07:47:12;16.63;;;11.03;;
32365;SDS011;18837;46.832;16.838;2022-11-22T07:55:24;16.27;;;10.93;;
32365;SDS011;18837;46.832;16.838;2022-11-22T07:57:51;15.30;;;10.63;;
32365;SDS011;18837;46.832;16.838;2022-11-22T08:00:17;17.97;;;12.13;;
32365;SDS011;18837;46.832;16.838;2022-11-22T08:02:44;17.97;;;11.67;;
32365;SDS011;18837;46.832;16.838;2022-11-22T08:05:10;18.00;;;12.63;;
32365;SDS011;18837;46.832;16.838;2022-11-22T08:07:35;17.43;;;12.80;;
32365;SDS011;18837;46.832;16.838;2022-11-22T08:10:04;17.20;;;11.60;;
32365;SDS011;18837;46.832;16.838;2022-11-22T08:12:30;18.33;;;11.77;;
32365;SDS011;18837;46.832;16.838;2022-11-22T08:14:56;17.37;;;11.63;;
32365;SDS011;18837;46.832;16.838;2022-11-22T08:17:21;18.67;;;12.43;;
32365;SDS011;18837;46.832;16.838;2022-11-22T08:19:47;16.97;;;11.73;;
32365;SDS011;18837;46.832;16.838;2022-11-22T08:22:23;16.33;;;11.67;;
32365;SDS011;18837;46.832;16.838;2022-11-22T08:24:49;15.47;;;11.33;;
32365;SDS011;18837;46.832;16.838;2022-11-22T08:27:14;14.23;;;10.60;;
32365;SDS011;18837;46.832;16.838;2022-11-22T08:29:40;16.13;;;11.60;;
32365;SDS011;18837;46.832;16.838;2022-11-22T08:32:06;15.67;;;11.60;;
32365;SDS011;18837;46.832;16.838;2022-11-22T08:34:31;16.40;;;10.63;;
32365;SDS011;18837;46.832;16.838;2022-11-22T08:43:19;16.67;;;11.37;;
32365;SDS011;18837;46.832;16.838;2022-11-22T08:45:46;16.97;;;11.47;;
32365;SDS011;18837;46.832;16.838;2022-11-22T08:48:20;14.87;;;10.83;;
32365;SDS011;18837;46.832;16.838;2022-11-22T08:50:49;14.33;;;11.07;;
32365;SDS011;18837;46.832;16.838;2022-11-22T08:53:20;15.63;;;11.03;;
32365;SDS011;18837;46.832;16.838;2022-11-22T08:55:46;16.50;;;11.17;;
32365;SDS011;18837;46.832;16.838;2022-11-22T08:58:21;14.80;;;10.70;;
32365;SDS011;18837;46.832;16.838;2022-11-22T09:03:31;15.07;;;10.27;;
32365;SDS011;18837;46.832;16.838;2022-11-22T09:06:02;14.27;;;10.67;;
32365;SDS011;18837;46.832;16.838;2022-11-22T09:08:29;17.80;;;10.50;;
32365;SDS011;18837;46.832;16.838;2022-11-22T09:10:58;15.57;;;10.03;;
32365;SDS011;18837;46.832;16.838;2022-11-22T09:19:05;14.73;;;10.47;;
32365;SDS011;18837;46.832;16.838;2022-11-22T09:21:30;14.10;;;10.23;;
32365;SDS011;18837;46.832;16.838;2022-11-22T09:23:56;16.03;;;10.40;;
32365;SDS011;18837;46.832;16.838;2022-11-22T09:26:22;17.47;;;10.17;;
32365;SDS011;18837;46.832;16.838;2022-11-22T09:28:49;14.67;;;10.40;;
32365;SDS011;18837;46.832;16.838;2022-11-22T09:34:03;13.90;;;10.43;;
32365;SDS011;18837;46.832;16.838;2022-11-22T09:36:28;15.63;;;10.00;;
32365;SDS011;18837;46.832;16.838;2022-11-22T09:38:55;16.10;;;10.50;;
32365;SDS011;18837;46.832;16.838;2022-11-22T09:53:21;14.43;;;9.93;;
32365;SDS011;18837;46.832;16.838;2022-11-22T09:55:58;14.97;;;10.43;;
32365;SDS011;18837;46.832;16.838;2022-11-22T09:58:46;15.03;;;10.13;;
32365;SDS011;18837;46.832;16.838;2022-11-22T10:01:25;14.87;;;10.20;;
32365;SDS011;18837;46.832;16.838;2022-11-22T10:04:02;14.83;;;10.40;;
32365;SDS011;18837;46.832;16.838;2022-11-22T10:06:55;13.17;;;10.53;;
32365;SDS011;18837;46.832;16.838;2022-11-22T10:12:24;16.20;;;10.37;;
32365;SDS011;18837;46.832;16.838;2022-11-22T10:17:49;13.57;;;9.73;;
32365;SDS011;18837;46.832;16.838;2022-11-22T10:29:25;13.40;;;10.03;;
32365;SDS011;18837;46.832;16.838;2022-11-22T10:32:19;13.73;;;9.93;;
32365;SDS011;18837;46.832;16.838;2022-11-22T10:42:56;13.40;;;9.10;;
32365;SDS011;18837;46.832;16.838;2022-11-22T10:45:38;12.53;;;9.73;;
32365;SDS011;18837;46.832;16.838;2022-11-22T10:48:43;11.80;;;9.13;;
32365;SDS011;18837;46.832;16.838;2022-11-22T10:54:32;12.33;;;9.53;;
32365;SDS011;18837;46.832;16.838;2022-11-22T11:03:39;11.10;;;8.67;;
32365;SDS011;18837;46.832;16.838;2022-11-22T11:08:43;9.93;;;8.27;;
32365;SDS011;18837;46.832;16.838;2022-11-22T11:11:12;11.33;;;8.40;;
32365;SDS011;18837;46.832;16.838;2022-11-22T11:13:43;10.87;;;8.30;;
32365;SDS011;18837;46.832;16.838;2022-11-22T11:16:28;9.77;;;8.30;;
32365;SDS011;18837;46.832;16.838;2022-11-22T11:18:57;11.17;;;7.83;;
32365;SDS011;18837;46.832;16.838;2022-11-22T11:21:37;11.20;;;8.27;;
32365;SDS011;18837;46.832;16.838;2022-11-22T11:24:08;9.70;;;8.00;;
32365;SDS011;18837;46.832;16.838;2022-11-22T11:26:40;10.20;;;7.93;;
32365;SDS011;18837;46.832;16.838;2022-11-22T11:35:05;9.37;;;7.73;;
32365;SDS011;18837;46.832;16.838;2022-11-22T11:37:34;12.33;;;7.77;;
32365;SDS011;18837;46.832;16.838;2022-11-22T11:40:02;10.67;;;7.77;;
32365;SDS011;18837;46.832;16.838;2022-11-22T11:42:30;10.90;;;7.97;;
32365;SDS011;18837;46.832;16.838;2022-11-22T11:47:45;10.43;;;8.13;;
32365;SDS011;18837;46.832;16.838;2022-11-22T11:50:23;11.10;;;8.47;;
32365;SDS011;18837;46.832;16.838;2022-11-22T11:52:54;10.10;;;8.33;;
32365;SDS011;18837;46.832;16.838;2022-11-22T11:55:29;10.30;;;7.60;;
32365;SDS011;18837;46.832;16.838;2022-11-22T11:57:55;10.57;;;8.67;;
32365;SDS011;18837;46.832;16.838;2022-11-22T12:00:25;11.37;;;8.53;;
32365;SDS011;18837;46.832;16.838;2022-11-22T12:02:56;12.07;;;8.13;;
32365;SDS011;18837;46.832;16.838;2022-11-22T12:11:19;10.83;;;7.97;;
32365;SDS011;18837;46.832;16.838;2022-11-22T12:14:09;10.17;;;8.00;;
32365;SDS011;18837;46.832;16.838;2022-11-22T12:16:42;10.40;;;8.13;;
32365;SDS011;18837;46.832;16.838;2022-11-22T12:22:15;9.80;;;7.83;;
32365;SDS011;18837;46.832;16.838;2022-11-22T12:24:55;10.97;;;8.10;;
32365;SDS011;18837;46.832;16.838;2022-11-22T12:27:23;11.23;;;8.60;;
32365;SDS011;18837;46.832;16.838;2022-11-22T12:29:49;10.73;;;7.97;;
32365;SDS011;18837;46.832;16.838;2022-11-22T12:32:23;10.33;;;7.80;;
32365;SDS011;18837;46.832;16.838;2022-11-22T12:43:51;9.30;;;7.27;;
32365;SDS011;18837;46.832;16.838;2022-11-22T12:46:21;12.40;;;8.43;;
32365;SDS011;18837;46.832;16.838;2022-11-22T12:51:45;8.17;;;6.83;;
32365;SDS011;18837;46.832;16.838;2022-11-22T12:54:17;9.70;;;7.83;;
32365;SDS011;18837;46.832;16.838;2022-11-22T13:02:33;8.57;;;7.07;;
32365;SDS011;18837;46.832;16.838;2022-11-22T13:05:16;11.13;;;8.30;;
32365;SDS011;18837;46.832;16.838;2022-11-22T13:10:26;10.93;;;8.00;;
32365;SDS011;18837;46.832;16.838;2022-11-22T13:20:15;11.37;;;7.80;;
32365;SDS011;18837;46.832;16.838;2022-11-22T13:22:55;11.33;;;8.07;;
32365;SDS011;18837;46.832;16.838;2022-11-22T13:25:51;11.00;;;8.47;;
32365;SDS011;18837;46.832;16.838;2022-11-22T13:28:44;11.00;;;8.63;;
32365;SDS011;18837;46.832;16.838;2022-11-22T13:31:13;11.30;;;8.60;;
32365;SDS011;18837;46.832;16.838;2022-11-22T13:36:51;10.70;;;7.67;;
32365;SDS011;18837;46.832;16.838;2022-11-22T13:39:18;8.90;;;7.43;;
32365;SDS011;18837;46.832;16.838;2022-11-22T13:41:51;13.23;;;8.67;;
32365;SDS011;18837;46.832;16.838;2022-11-22T13:55:49;14.80;;;9.40;;
32365;SDS011;18837;46.832;16.838;2022-11-22T14:03:23;11.00;;;8.43;;
32365;SDS011;18837;46.832;16.838;2022-11-22T14:05:58;12.23;;;9.63;;
32365;SDS011;18837;46.832;16.838;2022-11-22T14:14:11;12.60;;;9.17;;
32365;SDS011;18837;46.832;16.838;2022-11-22T14:16:53;12.07;;;9.43;;
32365;SDS011;18837;46.832;16.838;2022-11-22T14:32:18;19.43;;;13.30;;
32365;SDS011;18837;46.832;16.838;2022-11-22T14:42:49;25.07;;;16.43;;
32365;SDS011;18837;46.832;16.838;2022-11-22T14:45:21;25.33;;;15.80;;
32365;SDS011;18837;46.832;16.838;2022-11-22T14:48:13;26.17;;;17.10;;
32365;SDS011;18837;46.832;16.838;2022-11-22T14:50:43;27.23;;;16.60;;
32365;SDS011;18837;46.832;16.838;2022-11-22T14:53:27;26.57;;;16.63;;
32365;SDS011;18837;46.832;16.838;2022-11-22T14:56:07;26.43;;;16.80;;
32365;SDS011;18837;46.832;16.838;2022-11-22T15:18:57;23.53;;;16.40;;
32365;SDS011;18837;46.832;16.838;2022-11-22T15:23:52;22.67;;;15.70;;
32365;SDS011;18837;46.832;16.838;2022-11-22T15:26:19;24.07;;;16.97;;
32365;SDS011;18837;46.832;16.838;2022-11-22T15:28:47;23.97;;;16.50;;
32365;SDS011;18837;46.832;16.838;2022-11-22T15:40:36;22.33;;;17.23;;
32365;SDS011;18837;46.832;16.838;2022-11-22T15:43:04;21.90;;;17.13;;
32365;SDS011;18837;46.832;16.838;2022-11-22T15:45:40;22.93;;;16.87;;
32365;SDS011;18837;46.832;16.838;2022-11-22T15:53:58;22.83;;;17.23;;
32365;SDS011;18837;46.832;16.838;2022-11-22T15:56:31;21.93;;;16.30;;
32365;SDS011;18837;46.832;16.838;2022-11-22T16:01:58;20.43;;;15.93;;
32365;SDS011;18837;46.832;16.838;2022-11-22T16:04:32;22.40;;;16.50;;
32365;SDS011;18837;46.832;16.838;2022-11-22T16:16:01;21.67;;;16.43;;
32365;SDS011;18837;46.832;16.838;2022-11-22T16:18:42;23.03;;;17.40;;
32365;SDS011;18837;46.832;16.838;2022-11-22T16:23:36;23.03;;;17.27;;
32365;SDS011;18837;46.832;16.838;2022-11-22T16:29:10;23.07;;;17.50;;
32365;SDS011;18837;46.832;16.838;2022-11-22T16:31:50;23.93;;;16.93;;
32365;SDS011;18837;46.832;16.838;2022-11-22T16:34:22;21.00;;;16.17;;
32365;SDS011;18837;46.832;16.838;2022-11-22T16:36:48;24.53;;;17.73;;
32365;SDS011;18837;46.832;16.838;2022-11-22T16:39:14;22.40;;;16.90;;
32365;SDS011;18837;46.832;16.838;2022-11-22T16:45:20;23.17;;;15.70;;
32365;SDS011;18837;46.832;16.838;2022-11-22T16:47:47;22.17;;;16.83;;
32365;SDS011;18837;46.832;16.838;2022-11-22T16:50:14;21.10;;;15.63;;
32365;SDS011;18837;46.832;16.838;2022-11-22T16:52:43;22.47;;;16.57;;
32365;SDS011;18837;46.832;16.838;2022-11-22T16:55:13;21.10;;;16.90;;
32365;SDS011;18837;46.832;16.838;2022-11-22T16:57:42;20.57;;;16.27;;
32365;SDS011;18837;46.832;16.838;2022-11-22T17:02:54;22.67;;;17.23;;
32365;SDS011;18837;46.832;16.838;2022-11-22T17:05:21;23.37;;;17.30;;
32365;SDS011;18837;46.832;16.838;2022-11-22T17:07:47;22.37;;;18.27;;
32365;SDS011;18837;46.832;16.838;2022-11-22T17:10:14;23.20;;;17.50;;
32365;SDS011;18837;46.832;16.838;2022-11-22T17:12:40;21.73;;;17.10;;
32365;SDS011;18837;46.832;16.838;2022-11-22T17:21:30;24.37;;;17.70;;
32365;SDS011;18837;46.832;16.838;2022-11-22T17:23:57;25.60;;;18.37;;
32365;SDS011;18837;46.832;16.838;2022-11-22T17:26:25;23.77;;;19.47;;
32365;SDS011;18837;46.832;16.838;2022-11-22T17:28:51;23.03;;;18.07;;
32365;SDS011;18837;46.832;16.838;2022-11-22T17:31:18;23.60;;;17.60;;
32365;SDS011;18837;46.832;16.838;2022-11-22T17:33:52;24.00;;;18.03;;
32365;SDS011;18837;46.832;16.838;2022-11-22T17:39:10;22.07;;;17.53;;
32365;SDS011;18837;46.832;16.838;2022-11-22T17:41:37;21.30;;;16.77;;
32365;SDS011;18837;46.832;16.838;2022-11-22T17:44:06;21.77;;;17.07;;
32365;SDS011;18837;46.832;16.838;2022-11-22T17:46:35;22.03;;;16.17;;
32365;SDS011;18837;46.832;16.838;2022-11-22T17:49:02;23.50;;;17.30;;
32365;SDS011;18837;46.832;16.838;2022-11-22T17:57:20;23.93;;;18.70;;
32365;SDS011;18837;46.832;16.838;2022-11-22T17:59:45;26.00;;;18.47;;
32365;SDS011;18837;46.832;16.838;2022-11-22T18:02:11;24.97;;;18.33;;
32365;SDS011;18837;46.832;16.838;2022-11-22T18:04:37;24.50;;;18.73;;
32365;SDS011;18837;46.832;16.838;2022-11-22T18:07:08;24.33;;;18.70;;
32365;SDS011;18837;46.832;16.838;2022-11-22T18:12:25;23.50;;;18.37;;
32365;SDS011;18837;46.832;16.838;2022-11-22T18:14:52;26.00;;;19.47;;
32365;SDS011;18837;46.832;16.838;2022-11-22T18:17:18;24.83;;;19.00;;
32365;SDS011;18837;46.832;16.838;2022-11-22T18:19:44;26.03;;;19.77;;
32365;SDS011;18837;46.832;16.838;2022-11-22T18:22:10;24.60;;;19.17;;
32365;SDS011;18837;46.832;16.838;2022-11-22T18:30:58;24.13;;;18.07;;
32365;SDS011;18837;46.832;16.838;2022-11-22T18:33:24;24.23;;;19.67;;
32365;SDS011;18837;46.832;16.838;2022-11-22T18:36:00;23.03;;;18.70;;
32365;SDS011;18837;46.832;16.838;2022-11-22T18:38:28;24.50;;;17.67;;
32365;SDS011;18837;46.832;16.838;2022-11-22T18:40:57;24.63;;;18.30;;
32365;SDS011;18837;46.832;16.838;2022-11-22T18:43:24;24.30;;;18.07;;
32365;SDS011;18837;46.832;16.838;2022-11-22T18:48:38;24.43;;;18.57;;
32365;SDS011;18837;46.832;16.838;2022-11-22T19:12:46;22.80;;;17.63;;
32365;SDS011;18837;46.832;16.838;2022-11-22T19:15:12;27.53;;;18.60;;
32365;SDS011;18837;46.832;16.838;2022-11-22T19:17:48;22.87;;;17.73;;
32365;SDS011;18837;46.832;16.838;2022-11-22T19:28:07;21.13;;;16.90;;
32365;SDS011;18837;46.832;16.838;2022-11-22T19:30:39;21.67;;;16.30;;
32365;SDS011;18837;46.832;16.838;2022-11-22T19:56:24;17.97;;;14.40;;
32365;SDS011;18837;46.832;16.838;2022-11-22T19:58:54;18.07;;;14.23;;
32365;SDS011;18837;46.832;16.838;2022-11-22T20:01:22;18.57;;;14.90;;
32365;SDS011;18837;46.832;16.838;2022-11-22T20:03:56;19.73;;;14.57;;
32365;SDS011;18837;46.832;16.838;2022-11-22T20:06:24;19.20;;;15.23;;
32365;SDS011;18837;46.832;16.838;2022-11-22T20:15:19;19.27;;;14.77;;
32365;SDS011;18837;46.832;16.838;2022-11-22T20:17:45;18.40;;;14.20;;
32365;SDS011;18837;46.832;16.838;2022-11-22T20:20:12;19.30;;;14.60;;
32365;SDS011;18837;46.832;16.838;2022-11-22T20:22:38;18.70;;;15.03;;
32365;SDS011;18837;46.832;16.838;2022-11-22T20:25:04;18.90;;;14.97;;
32365;SDS011;18837;46.832;16.838;2022-11-22T20:27:30;19.50;;;14.43;;
32365;SDS011;18837;46.832;16.838;2022-11-22T20:32:47;17.83;;;14.10;;
32365;SDS011;18837;46.832;16.838;2022-11-22T20:35:14;19.33;;;15.07;;
32365;SDS011;18837;46.832;16.838;2022-11-22T20:37:40;19.00;;;13.97;;
32365;SDS011;18837;46.832;16.838;2022-11-22T20:40:07;16.90;;;13.10;;
32365;SDS011;18837;46.832;16.838;2022-11-22T20:42:33;18.07;;;14.10;;
32365;SDS011;18837;46.832;16.838;2022-11-22T20:51:13;16.83;;;13.47;;
32365;SDS011;18837;46.832;16.838;2022-11-22T20:53:41;16.03;;;12.93;;
32365;SDS011;18837;46.832;16.838;2022-11-22T20:56:07;17.13;;;13.13;;
32365;SDS011;18837;46.832;16.838;2022-11-22T20:58:34;17.43;;;11.97;;
32365;SDS011;18837;46.832;16.838;2022-11-22T21:01:04;16.37;;;13.27;;
32365;SDS011;18837;46.832;16.838;2022-11-22T21:06:22;16.03;;;12.20;;
32365;SDS011;18837;46.832;16.838;2022-11-22T21:08:50;16.17;;;12.90;;
32365;SDS011;18837;46.832;16.838;2022-11-22T21:13:49;17.53;;;12.47;;
32365;SDS011;18837;46.832;16.838;2022-11-22T21:16:22;14.23;;;11.50;;
32365;SDS011;18837;46.832;16.838;2022-11-22T21:25:04;14.70;;;11.50;;
32365;SDS011;18837;46.832;16.838;2022-11-22T21:27:31;16.13;;;12.17;;
32365;SDS011;18837;46.832;16.838;2022-11-22T21:29:56;16.67;;;12.60;;
32365;SDS011;18837;46.832;16.838;2022-11-22T21:32:22;15.53;;;11.70;;
32365;SDS011;18837;46.832;16.838;2022-11-22T21:40:18;15.53;;;11.00;;
32365;SDS011;18837;46.832;16.838;2022-11-22T21:42:43;13.83;;;10.83;;